Time;durP1;ratioP1;P1;durP2;ratioP2;P2;SDS_P1;SDS_P2;PMS_P1;PMS_P2;Temp;Humidity;BMP_temperature;BMP_pressure;BME280_temperature;BME280_humidity;BME280_pressure;Samples;Min_cycle;Max_cycle;Signal;HPM_P1;HPM_P2
2021/01/06 00:01:07;;;;;;;;;;;;;;;-0.08;98.78;100533.38;6228983;22;19903;-73
2021/01/06 00:03:32;;;;;;;;;;;;;;;-0.09;98.78;100531.69;6281433;22;20236;-73
2021/01/06 00:06:00;;;;;;;;;;;;;;;-0.07;98.58;100526.84;6281414;22;20286;-73
2021/01/06 00:08:25;;;;;;;;;;;;;;;-0.07;98.32;100524.13;6281580;22;19907;-73
2021/01/06 00:10:51;;;;;;;;;;;;;;;-0.08;98.53;100530.66;6281278;22;20339;-73
2021/01/06 00:13:19;;;;;;;;;;;;;;;-0.08;98.55;100527.94;6254264;22;19903;-73
2021/01/06 00:15:45;;;;;;;;;;;;;;;-0.05;98.25;100532.94;6253905;22;19922;-73
2021/01/06 00:18:11;;;;;;;;;;;;;;;-0.05;98.23;100543.84;6280957;22;20274;-73
2021/01/06 00:20:36;;;;;;;;;;;;;;;-0.06;98.46;100542.16;6228911;22;19941;-73
2021/01/06 00:23:02;;;;;;;;;;;;;;;-0.04;98.34;100540.06;6281528;22;19981;-73
2021/01/06 00:25:31;;;;;;;;;;;;;;;-0.04;98.40;100540.06;6228573;22;19938;-73
2021/01/06 00:27:56;;;;;;;;;;;;;;;-0.05;98.31;100543.84;6254309;22;19914;-73
2021/01/06 00:30:26;;;;;;;;;;;;;;;-0.03;98.33;100536.25;6229426;22;19903;-73
2021/01/06 00:32:52;;;;;;;;;;;;;;;-0.02;98.20;100537.94;6281084;22;19910;-73
2021/01/06 00:35:18;;;;;;;;;;;;;;;-0.02;98.12;100535.22;6228683;22;20324;-73
2021/01/06 00:37:43;;;;;;;;;;;;;;;-0.03;98.28;100534.38;6253384;22;19954;-73
2021/01/06 00:40:09;;;;;;;;;;;;;;;-0.02;98.04;100530.59;6254112;22;19903;-73
2021/01/06 00:42:35;;;;;;;;;;;;;;;-0.01;98.00;100534.16;6254000;22;19989;-73
2021/01/06 00:45:01;;;;;;;;;;;;;;;-0.04;98.09;100537.31;6253886;22;19907;-73
2021/01/06 00:47:26;;;;;;;;;;;;;;;-0.01;98.04;100528.69;6253409;22;19903;-73
2021/01/06 00:49:52;;;;;;;;;;;;;;;-0.03;98.09;100536.25;6254070;22;19923;-73
2021/01/06 00:52:17;;;;;;;;;;;;;;;-0.05;98.22;100538.41;6228987;22;19909;-73
2021/01/06 00:54:42;;;;;;;;;;;;;;;-0.06;98.12;100532.06;6281189;22;19927;-73
2021/01/06 00:57:08;;;;;;;;;;;;;;;-0.06;98.13;100531.25;6280745;22;19903;-73
2021/01/06 00:59:33;;;;;;;;;;;;;;;-0.09;98.15;100534.44;6254442;22;19902;-73
2021/01/06 01:01:59;;;;;;;;;;;;;;;-0.10;98.28;100530.88;6254044;22;19903;-73
2021/01/06 01:04:24;;;;;;;;;;;;;;;-0.09;98.11;100537.16;6281207;22;19918;-73
2021/01/06 01:06:50;;;;;;;;;;;;;;;-0.11;97.82;100529.19;6228628;22;19904;-73
2021/01/06 01:09:16;;;;;;;;;;;;;;;-0.14;97.84;100523.34;6229136;22;19990;-74
2021/01/06 01:11:41;;;;;;;;;;;;;;;-0.15;97.81;100522.50;6283260;22;19910;-73
2021/01/06 01:14:07;;;;;;;;;;;;;;;-0.15;97.74;100527.13;6282879;22;19904;-73
2021/01/06 01:16:32;;;;;;;;;;;;;;;-0.16;97.52;100529.03;6255969;22;20324;-73
2021/01/06 01:18:58;;;;;;;;;;;;;;;-0.21;97.67;100525.31;6256277;22;20310;-73
2021/01/06 01:21:23;;;;;;;;;;;;;;;-0.21;97.65;100531.59;6230949;22;19910;-73
2021/01/06 01:23:48;;;;;;;;;;;;;;;-0.24;97.65;100527.41;6230424;22;19911;-73
2021/01/06 01:26:14;;;;;;;;;;;;;;;-0.27;97.60;100525.13;6255517;22;20334;-73
2021/01/06 01:28:39;;;;;;;;;;;;;;;-0.29;97.57;100524.50;6256195;22;19929;-73
2021/01/06 01:31:05;;;;;;;;;;;;;;;-0.33;97.70;100523.28;6255536;22;19938;-73
2021/01/06 01:33:30;;;;;;;;;;;;;;;-0.35;97.49;100528.13;6255790;22;19910;-73
2021/01/06 01:35:56;;;;;;;;;;;;;;;-0.39;97.50;100526.06;6255304;22;19907;-74
2021/01/06 01:38:22;;;;;;;;;;;;;;;-0.42;97.39;100529.22;6230498;22;20205;-73
2021/01/06 01:40:53;;;;;;;;;;;;;;;-0.46;97.55;100526.94;6256000;22;19903;-73
2021/01/06 01:43:19;;;;;;;;;;;;;;;-0.48;97.49;100526.31;6229955;22;20298;-73
2021/01/06 01:45:44;;;;;;;;;;;;;;;-0.47;97.39;100529.91;6255697;22;19907;-73
2021/01/06 01:48:22;;;;;;;;;;;;;;;-0.55;97.66;100532.91;6282938;22;19911;-74
2021/01/06 01:50:47;;;;;;;;;;;;;;;-0.52;97.56;100532.47;6283185;22;19903;-74
2021/01/06 01:53:15;;;;;;;;;;;;;;;-0.57;97.59;100526.81;6230638;22;19903;-73
2021/01/06 01:55:41;;;;;;;;;;;;;;;-0.60;97.70;100530.00;6230694;22;19911;-73
2021/01/06 01:58:07;;;;;;;;;;;;;;;-0.59;97.54;100537.94;6230606;22;19903;-73
2021/01/06 02:00:33;;;;;;;;;;;;;;;-0.60;97.68;100536.28;6256232;22;19903;-73
2021/01/06 02:03:06;;;;;;;;;;;;;;;-0.63;97.62;100546.81;6255006;22;19918;-73
2021/01/06 02:05:33;;;;;;;;;;;;;;;-0.65;97.69;100547.00;6255467;22;19942;-73
2021/01/06 02:08:01;;;;;;;;;;;;;;;-0.66;97.72;100550.81;6205198;22;20293;-73
2021/01/06 02:10:34;;;;;;;;;;;;;;;-0.66;97.50;100549.97;6255502;22;19903;-73
2021/01/06 02:13:09;;;;;;;;;;;;;;;-0.73;97.77;100544.53;6230502;22;20326;-73
2021/01/06 02:15:36;;;;;;;;;;;;;;;-0.78;97.87;100545.22;6255669;22;19952;-73
2021/01/06 02:18:02;;;;;;;;;;;;;;;-0.80;97.89;100555.50;6255333;22;19903;-73
2021/01/06 02:20:28;;;;;;;;;;;;;;;-0.83;97.76;100553.22;6255596;22;19925;-73
2021/01/06 02:22:54;;;;;;;;;;;;;;;-0.85;98.14;100549.03;6255698;22;20412;-73
2021/01/06 02:25:20;;;;;;;;;;;;;;;-0.85;98.07;100549.88;6204454;22;19914;-73
2021/01/06 02:27:46;;;;;;;;;;;;;;;-0.87;98.02;100543.78;6255301;22;19907;-73
2021/01/06 02:30:12;;;;;;;;;;;;;;;-0.87;98.04;100549.22;6255446;22;19910;-73
2021/01/06 02:32:37;;;;;;;;;;;;;;;-0.93;98.36;100545.50;6255455;22;19903;-73
2021/01/06 02:35:04;;;;;;;;;;;;;;;-0.92;98.15;100541.72;6204489;22;19911;-73
2021/01/06 02:37:29;;;;;;;;;;;;;;;-0.91;98.38;100537.09;6229100;22;20212;-73
2021/01/06 02:39:55;;;;;;;;;;;;;;;-0.91;98.24;100523.47;6229763;22;20021;-73
2021/01/06 02:42:20;;;;;;;;;;;;;;;-0.88;98.09;100523.03;6230501;22;19903;-73
2021/01/06 02:44:47;;;;;;;;;;;;;;;-0.91;98.12;100512.56;6230060;22;19933;-73
2021/01/06 02:47:13;;;;;;;;;;;;;;;-0.94;98.34;100507.56;6229335;22;19934;-73
2021/01/06 02:49:38;;;;;;;;;;;;;;;-0.95;98.21;100506.72;6230193;22;19909;-73
2021/01/06 02:52:13;;;;;;;;;;;;;;;-0.93;98.06;100504.59;6230343;22;20323;-74
2021/01/06 02:54:39;;;;;;;;;;;;;;;-0.95;98.10;100506.72;6230165;22;19903;-73
2021/01/06 02:57:05;;;;;;;;;;;;;;;-0.97;98.10;100513.44;6255021;22;19907;-73
2021/01/06 02:59:32;;;;;;;;;;;;;;;-0.95;98.10;100516.75;6255294;22;19910;-73
2021/01/06 03:01:58;;;;;;;;;;;;;;;-0.98;97.83;100511.75;6229341;22;19903;-73
2021/01/06 03:04:23;;;;;;;;;;;;;;;-1.02;97.82;100521.44;6254826;22;19965;-73
2021/01/06 03:06:53;;;;;;;;;;;;;;;-1.03;97.62;100525.19;6255341;22;19903;-73
2021/01/06 03:09:24;;;;;;;;;;;;;;;-1.06;97.40;100534.66;6281168;22;19910;-73
2021/01/06 03:11:50;;;;;;;;;;;;;;;-1.10;97.28;100535.31;6229144;22;19904;-74
2021/01/06 03:14:15;;;;;;;;;;;;;;;-1.16;97.44;100543.28;6204831;22;19903;-75
2021/01/06 03:16:40;;;;;;;;;;;;;;;-1.18;97.26;100539.13;6254537;22;19910;-74
2021/01/06 03:19:06;;;;;;;;;;;;;;;-1.23;97.26;100544.38;6230016;22;19903;-73
2021/01/06 03:21:31;;;;;;;;;;;;;;;-1.29;97.25;100548.78;6205029;22;19910;-73
2021/01/06 03:23:57;;;;;;;;;;;;;;;-1.33;97.10;100547.56;6254897;22;20002;-74
2021/01/06 03:26:23;;;;;;;;;;;;;;;-1.35;97.11;100545.03;6229294;22;19974;-73
2021/01/06 03:28:48;;;;;;;;;;;;;;;-1.40;97.25;100549.47;6254833;22;19949;-73
2021/01/06 03:31:15;;;;;;;;;;;;;;;-1.44;97.06;100551.78;6204469;22;19907;-73
2021/01/06 03:33:48;;;;;;;;;;;;;;;-1.45;96.98;100550.13;6204598;22;19949;-73
2021/01/06 03:36:14;;;;;;;;;;;;;;;-1.53;97.16;100552.22;6253592;22;19952;-73
2021/01/06 03:38:56;;;;;;;;;;;;;;;-1.53;97.01;100557.66;6254653;22;19925;-73
2021/01/06 03:41:22;;;;;;;;;;;;;;;-1.52;97.05;100562.09;6254132;22;19925;-73
2021/01/06 03:43:50;;;;;;;;;;;;;;;-1.60;97.16;100558.53;6255158;22;20275;-73
2021/01/06 03:46:34;;;;;;;;;;;;;;;-1.62;97.30;100557.88;6254257;22;20251;-73
2021/01/06 03:49:05;;;;;;;;;;;;;;;-1.65;97.25;100547.44;6254025;22;19985;-73
2021/01/06 03:51:31;;;;;;;;;;;;;;;-1.66;97.03;100548.50;6228994;22;19914;-75
2021/01/06 03:53:57;;;;;;;;;;;;;;;-1.70;97.10;100549.13;6229433;22;19903;-73
2021/01/06 03:56:26;;;;;;;;;;;;;;;-1.75;97.21;100544.31;6254439;22;19903;-73
2021/01/06 03:59:02;;;;;;;;;;;;;;;-1.76;97.07;100539.06;6254366;22;19976;-74
2021/01/06 04:01:31;;;;;;;;;;;;;;;-1.78;96.97;100539.31;6203417;22;19907;-73
2021/01/06 04:04:03;;;;;;;;;;;;;;;-1.78;96.94;100538.44;6281383;22;19915;-73
2021/01/06 04:06:29;;;;;;;;;;;;;;;-1.86;97.04;100536.81;6229469;22;20224;-73
2021/01/06 04:08:55;;;;;;;;;;;;;;;-1.89;97.21;100540.78;6228962;22;19907;-73
2021/01/06 04:11:22;;;;;;;;;;;;;;;-1.91;97.02;100544.75;6253907;22;20454;-73
2021/01/06 04:13:48;;;;;;;;;;;;;;;-1.95;97.13;100527.16;6254518;22;19903;-73
2021/01/06 04:16:13;;;;;;;;;;;;;;;-1.97;97.13;100532.00;6254414;22;19903;-74
2021/01/06 04:18:40;;;;;;;;;;;;;;;-1.96;96.93;100537.22;6254197;22;19925;-73
2021/01/06 04:21:05;;;;;;;;;;;;;;;-2.04;97.17;100532.81;6281322;22;19906;-73
2021/01/06 04:23:30;;;;;;;;;;;;;;;-2.06;96.99;100529.50;6281324;22;19978;-73
2021/01/06 04:25:56;;;;;;;;;;;;;;;-2.10;97.13;100530.94;6254225;22;20340;-73
2021/01/06 04:28:26;;;;;;;;;;;;;;;-2.14;97.10;100535.16;6254722;22;19986;-73
2021/01/06 04:30:51;;;;;;;;;;;;;;;-2.14;97.04;100532.44;6253719;22;19945;-73
2021/01/06 04:33:34;;;;;;;;;;;;;;;-2.14;96.92;100535.16;6281040;22;19903;-73
2021/01/06 04:36:00;;;;;;;;;;;;;;;-2.22;96.87;100540.81;6228582;22;20296;-73
2021/01/06 04:38:30;;;;;;;;;;;;;;;-2.20;96.87;100536.00;6254573;22;19914;-73
2021/01/06 04:41:14;;;;;;;;;;;;;;;-2.21;96.81;100534.31;6253803;22;19907;-73
2021/01/06 04:43:40;;;;;;;;;;;;;;;-2.23;96.79;100536.38;6253834;22;19911;-73
2021/01/06 04:46:25;;;;;;;;;;;;;;;-2.24;96.68;100540.16;6254027;22;19947;-73
2021/01/06 04:49:02;;;;;;;;;;;;;;;-2.29;96.52;100529.91;6281364;22;19903;-73
2021/01/06 04:51:33;;;;;;;;;;;;;;;-2.29;96.77;100531.78;6254329;22;20300;-73
2021/01/06 04:54:07;;;;;;;;;;;;;;;-2.28;96.69;100533.50;6281105;22;19903;-73
2021/01/06 04:56:45;;;;;;;;;;;;;;;-2.29;96.59;100538.06;6203563;22;19903;-74
2021/01/06 04:59:29;;;;;;;;;;;;;;;-2.31;96.67;100536.63;6254188;22;20296;-73
2021/01/06 05:02:13;;;;;;;;;;;;;;;-2.31;96.67;100526.59;6228479;22;19919;-73
2021/01/06 05:04:38;;;;;;;;;;;;;;;-2.32;96.68;100529.50;6254436;22;20376;-73
2021/01/06 05:07:07;;;;;;;;;;;;;;;-2.33;96.80;100538.72;6253975;22;19926;-73
2021/01/06 05:09:37;;;;;;;;;;;;;;;-2.34;96.92;100537.03;6280956;22;19914;-73
2021/01/06 05:12:14;;;;;;;;;;;;;;;-2.35;96.48;100543.53;6228871;22;20527;-74
2021/01/06 05:14:50;;;;;;;;;;;;;;;-2.33;96.54;100538.72;6228975;22;19903;-73
2021/01/06 05:17:15;;;;;;;;;;;;;;;-2.36;96.49;100537.25;6228539;22;20284;-73
2021/01/06 05:19:41;;;;;;;;;;;;;;;-2.37;96.67;100530.13;6228531;22;19931;-73
2021/01/06 05:22:06;;;;;;;;;;;;;;;-2.38;96.51;100524.91;6203663;22;19903;-73
2021/01/06 05:24:32;;;;;;;;;;;;;;;-2.37;96.57;100516.50;6254272;22;19907;-74
2021/01/06 05:27:17;;;;;;;;;;;;;;;-2.37;96.68;100526.56;6253795;22;19903;-73
2021/01/06 05:29:44;;;;;;;;;;;;;;;-2.36;96.74;100530.97;6279865;22;19903;-73
2021/01/06 05:32:17;;;;;;;;;;;;;;;-2.39;96.78;100534.13;6253417;22;20205;-73
2021/01/06 05:34:42;;;;;;;;;;;;;;;-2.37;96.89;100529.28;6253785;22;19904;-73
2021/01/06 05:37:09;;;;;;;;;;;;;;;-2.36;96.83;100536.41;6253417;22;19903;-74
2021/01/06 05:39:35;;;;;;;;;;;;;;;-2.35;96.77;100532.63;6254094;22;20083;-73
2021/01/06 05:42:11;;;;;;;;;;;;;;;-2.33;96.86;100527.84;6253617;22;19950;-73
2021/01/06 05:44:36;;;;;;;;;;;;;;;-2.37;96.85;100535.56;6281175;22;19946;-73
2021/01/06 05:47:01;;;;;;;;;;;;;;;-2.34;96.80;100537.03;6280720;22;19911;-73
2021/01/06 05:49:28;;;;;;;;;;;;;;;-2.37;96.95;100532.00;6228744;22;19985;-73
2021/01/06 05:51:55;;;;;;;;;;;;;;;-2.37;96.97;100542.88;6203582;22;19910;-73
2021/01/06 05:54:40;;;;;;;;;;;;;;;-2.36;97.03;100533.69;6228941;22;19903;-73
2021/01/06 05:57:14;;;;;;;;;;;;;;;-2.34;96.98;100537.88;6234232;22;19907;-73
2021/01/06 05:59:42;;;;;;;;;;;;;;;-2.35;97.00;100538.06;6256412;22;20298;-73
2021/01/06 06:02:08;;;;;;;;;;;;;;;-2.35;96.96;100544.34;6229928;22;19946;-73
2021/01/06 06:04:48;;;;;;;;;;;;;;;-2.32;97.05;100537.66;6282623;22;19914;-73
2021/01/06 06:07:13;;;;;;;;;;;;;;;-2.30;96.83;100549.19;6230460;22;20305;-73
2021/01/06 06:09:39;;;;;;;;;;;;;;;-2.31;96.92;100547.50;6282726;22;20304;-73
2021/01/06 06:12:08;;;;;;;;;;;;;;;-2.32;96.86;100559.41;6282342;22;19907;-73
2021/01/06 06:14:52;;;;;;;;;;;;;;;-2.32;96.97;100559.41;6282592;22;19903;-73
2021/01/06 06:17:38;;;;;;;;;;;;;;;-2.32;96.95;100560.25;6282062;22;19983;-73
2021/01/06 06:20:19;;;;;;;;;;;;;;;-2.30;97.12;100569.06;6282592;22;19960;-73
2021/01/06 06:22:56;;;;;;;;;;;;;;;-2.27;97.15;100559.63;6255945;22;19903;-73
2021/01/06 06:25:26;;;;;;;;;;;;;;;-2.27;97.24;100565.06;6255593;22;20266;-73
2021/01/06 06:27:51;;;;;;;;;;;;;;;-2.25;97.19;100569.28;6255039;22;19903;-73
2021/01/06 06:30:37;;;;;;;;;;;;;;;-2.23;97.48;100566.31;6282482;22;19909;-73
2021/01/06 06:33:11;;;;;;;;;;;;;;;-2.22;97.43;100568.00;6281966;22;19909;-73
2021/01/06 06:35:37;;;;;;;;;;;;;;;-2.22;97.34;100573.47;6229187;22;19926;-73
2021/01/06 06:38:06;;;;;;;;;;;;;;;-2.21;97.33;100572.41;6255421;22;19907;-73
2021/01/06 06:41:07;;;;;;;;;;;;;;;-2.20;97.28;100570.50;6255180;22;19925;-73
2021/01/06 06:43:40;;;;;;;;;;;;;;;-2.20;97.68;100571.38;6158815;23;20376;-74
2021/01/06 06:46:24;;;;;;;;;;;;;;;-2.16;97.54;100575.34;6109166;23;19908;-73
2021/01/06 06:48:56;;;;;;;;;;;;;;;-2.16;97.65;100574.50;6158858;23;20341;-73
2021/01/06 06:51:26;;;;;;;;;;;;;;;-2.16;97.58;100569.91;6159085;23;19905;-73
2021/01/06 06:54:00;;;;;;;;;;;;;;;-2.15;97.68;100574.28;6134165;23;19909;-73
2021/01/06 06:56:40;;;;;;;;;;;;;;;-2.15;97.69;100576.16;6158413;23;19936;-73
2021/01/06 06:59:07;;;;;;;;;;;;;;;-2.10;97.69;100590.81;6133714;23;19959;-73
2021/01/06 07:01:34;;;;;;;;;;;;;;;-2.07;97.56;100587.69;6158388;23;19904;-74
2021/01/06 07:04:03;;;;;;;;;;;;;;;-2.05;97.63;100587.47;6109461;23;19920;-74
2021/01/06 07:06:29;;;;;;;;;;;;;;;-2.10;97.90;100593.53;6133438;23;19904;-73
2021/01/06 07:08:55;;;;;;;;;;;;;;;-2.06;97.73;100581.22;6133552;23;19912;-73
2021/01/06 07:11:28;;;;;;;;;;;;;;;-2.05;97.71;100588.31;6158507;23;19905;-74
2021/01/06 07:13:58;;;;;;;;;;;;;;;-2.03;97.80;100591.69;6134359;23;19905;-74
2021/01/06 07:16:27;;;;;;;;;;;;;;;-2.00;97.88;100589.59;6138855;22;19913;-74
2021/01/06 07:18:53;;;;;;;;;;;;;;;-2.01;97.97;100594.16;6229747;22;19958;-73
2021/01/06 07:21:28;;;;;;;;;;;;;;;-1.98;97.82;100587.47;6255010;22;19930;-74
2021/01/06 07:23:54;;;;;;;;;;;;;;;-1.97;97.78;100591.88;6230237;22;19907;-74
2021/01/06 07:26:20;;;;;;;;;;;;;;;-1.92;97.71;100592.06;6281691;22;19952;-74
2021/01/06 07:28:45;;;;;;;;;;;;;;;-1.90;97.75;100593.53;6254407;22;19907;-73
2021/01/06 07:31:18;;;;;;;;;;;;;;;-1.90;97.91;100595.44;6229011;22;19903;-73
2021/01/06 07:33:45;;;;;;;;;;;;;;;-1.91;98.07;100597.31;6229545;22;19907;-73
2021/01/06 07:36:12;;;;;;;;;;;;;;;-1.91;97.89;100596.50;6204395;22;19903;-73
2021/01/06 07:38:38;;;;;;;;;;;;;;;-1.90;98.09;100596.25;6254848;22;19910;-73
2021/01/06 07:41:03;;;;;;;;;;;;;;;-1.89;97.96;100592.50;6254584;22;19906;-74
2021/01/06 07:43:29;;;;;;;;;;;;;;;-1.84;98.07;100606.34;6254833;22;19907;-73
2021/01/06 07:45:58;;;;;;;;;;;;;;;-1.83;98.01;100607.16;6229291;22;20327;-74
2021/01/06 07:48:45;;;;;;;;;;;;;;;-1.82;97.96;100608.81;6254760;22;19926;-74
2021/01/06 07:51:33;;;;;;;;;;;;;;;-1.80;98.13;100610.28;6281468;22;19964;-73
2021/01/06 07:54:01;;;;;;;;;;;;;;;-1.78;97.86;100614.69;6218551;22;20231;-73
2021/01/06 07:56:28;;;;;;;;;;;;;;;-1.80;98.15;100613.03;6281554;22;19907;-73
2021/01/06 07:58:54;;;;;;;;;;;;;;;-1.82;98.11;100614.28;6254761;22;20236;-73
2021/01/06 08:01:31;;;;;;;;;;;;;;;-1.80;98.20;100606.75;6254001;22;19949;-73
2021/01/06 08:03:59;;;;;;;;;;;;;;;-1.77;98.08;100619.94;6230208;22;19921;-73
2021/01/06 08:07:06;;;;;;;;;;;;;;;-1.76;98.19;100621.59;6255331;22;19918;-73
2021/01/06 08:09:32;;;;;;;;;;;;;;;-1.75;98.21;100619.75;6133258;23;19908;-73
2021/01/06 08:11:58;;;;;;;;;;;;;;;-1.76;98.37;100624.31;6158013;23;19931;-73
2021/01/06 08:14:25;;;;;;;;;;;;;;;-1.73;98.40;100626.63;6133250;23;19908;-73
2021/01/06 08:16:52;;;;;;;;;;;;;;;-1.72;98.19;100625.59;6132859;23;19908;-73
2021/01/06 08:19:34;;;;;;;;;;;;;;;-1.69;98.24;100633.34;6133407;23;20278;-73
2021/01/06 08:22:05;;;;;;;;;;;;;;;-1.67;97.96;100633.97;6133784;23;20032;-74
2021/01/06 08:24:30;;;;;;;;;;;;;;;-1.68;98.23;100634.16;6133086;23;20235;-73
2021/01/06 08:26:56;;;;;;;;;;;;;;;-1.66;98.24;100635.63;6132756;23;19940;-74
2021/01/06 08:29:23;;;;;;;;;;;;;;;-1.66;98.19;100640.25;6133341;23;19904;-73
2021/01/06 08:31:50;;;;;;;;;;;;;;;-1.63;98.23;100637.94;6133079;23;19920;-74
2021/01/06 08:34:17;;;;;;;;;;;;;;;-1.64;98.38;100638.16;6133537;23;19927;-73
2021/01/06 08:36:43;;;;;;;;;;;;;;;-1.62;98.50;100636.03;6132362;23;19987;-73
2021/01/06 08:39:27;;;;;;;;;;;;;;;-1.59;98.64;100639.19;6165387;22;19912;-74
2021/01/06 08:41:54;;;;;;;;;;;;;;;-1.60;98.51;100645.69;6253897;22;20283;-74
2021/01/06 08:44:29;;;;;;;;;;;;;;;-1.58;98.41;100642.75;6204353;22;19907;-73
2021/01/06 08:46:58;;;;;;;;;;;;;;;-1.57;98.38;100649.88;6228429;22;19909;-74
2021/01/06 08:49:24;;;;;;;;;;;;;;;-1.56;98.54;100654.28;6253902;22;19903;-73
2021/01/06 08:51:51;;;;;;;;;;;;;;;-1.51;98.63;100659.09;6228732;22;19907;-74
2021/01/06 08:54:26;;;;;;;;;;;;;;;-1.51;98.56;100659.09;6229223;22;19945;-73
2021/01/06 08:56:59;;;;;;;;;;;;;;;-1.51;98.60;100659.91;6228451;22;19953;-73
2021/01/06 08:59:25;;;;;;;;;;;;;;;-1.48;98.69;100667.66;6254099;22;19903;-77
2021/01/06 09:01:51;;;;;;;;;;;;;;;-1.42;98.81;100668.69;6253263;22;19933;-73
2021/01/06 09:04:17;;;;;;;;;;;;;;;-1.42;98.84;100671.44;6204004;22;19911;-73
2021/01/06 09:07:01;;;;;;;;;;;;;;;-1.39;98.78;100671.03;6228842;22;19910;-73
2021/01/06 09:09:27;;;;;;;;;;;;;;;-1.40;98.81;100678.34;6253727;22;19918;-73
2021/01/06 09:11:54;;;;;;;;;;;;;;;-1.35;98.72;100684.00;6253579;22;19903;-73
2021/01/06 09:14:22;;;;;;;;;;;;;;;-1.33;98.82;100682.97;6229346;22;19910;-73
2021/01/06 09:16:51;;;;;;;;;;;;;;;-1.33;99.05;100683.81;6254584;22;19915;-73
2021/01/06 09:19:22;;;;;;;;;;;;;;;-1.30;98.96;100686.09;6228916;22;20354;-73
2021/01/06 09:21:48;;;;;;;;;;;;;;;-1.26;98.90;100690.06;6229034;22;19904;-73
2021/01/06 09:24:24;;;;;;;;;;;;;;;-1.24;98.89;100690.69;6228651;22;19913;-73
2021/01/06 09:27:02;;;;;;;;;;;;;;;-1.20;98.68;100688.38;6228964;22;19903;-75
2021/01/06 09:29:27;;;;;;;;;;;;;;;-1.18;98.97;100686.28;6204089;22;20009;-73
2021/01/06 09:31:54;;;;;;;;;;;;;;;-1.13;99.08;100686.50;6255348;22;19903;-73
2021/01/06 09:34:23;;;;;;;;;;;;;;;-1.10;99.08;100699.69;6282938;22;19903;-74
2021/01/06 09:36:49;;;;;;;;;;;;;;;-1.08;99.02;100700.31;6229989;22;20291;-74
2021/01/06 09:39:16;;;;;;;;;;;;;;;-1.02;99.03;100695.91;6283160;22;19903;-75
2021/01/06 09:41:41;;;;;;;;;;;;;;;-0.99;99.04;100703.66;6255599;22;19911;-73
2021/01/06 09:44:07;;;;;;;;;;;;;;;-0.94;98.86;100701.97;6255568;22;20347;-74
2021/01/06 09:46:32;;;;;;;;;;;;;;;-0.88;98.95;100693.97;6282642;22;19929;-73
2021/01/06 09:48:59;;;;;;;;;;;;;;;-0.84;98.86;100701.50;6256109;22;20231;-73
2021/01/06 09:51:24;;;;;;;;;;;;;;;-0.77;98.78;100696.03;6255708;22;20304;-73
2021/01/06 09:53:51;;;;;;;;;;;;;;;-0.72;98.79;100697.06;6255629;22;19903;-74
2021/01/06 09:56:16;;;;;;;;;;;;;;;-0.66;98.75;100695.38;6255662;22;19947;-73
2021/01/06 09:58:42;;;;;;;;;;;;;;;-0.60;98.51;100690.94;6256128;22;20236;-73
2021/01/06 10:01:25;;;;;;;;;;;;;;;-0.55;98.52;100691.13;6229671;22;19903;-73
2021/01/06 10:03:51;;;;;;;;;;;;;;;-0.49;98.55;100707.47;6255090;22;19933;-73
2021/01/06 10:06:32;;;;;;;;;;;;;;;-0.43;98.30;100705.75;6230518;22;19911;-73
2021/01/06 10:09:09;;;;;;;;;;;;;;;-0.38;98.40;100696.94;6282835;22;19903;-73
2021/01/06 10:11:44;;;;;;;;;;;;;;;-0.32;98.28;100696.06;6230183;22;19973;-73
2021/01/06 10:14:28;;;;;;;;;;;;;;;-0.26;98.33;100695.19;6255351;22;19909;-73
2021/01/06 10:17:01;;;;;;;;;;;;;;;-0.20;98.35;100693.47;6255338;22;19974;-73
2021/01/06 10:19:34;;;;;;;;;;;;;;;-0.14;98.12;100693.44;6205241;22;19914;-73
2021/01/06 10:22:18;;;;;;;;;;;;;;;-0.08;98.52;100686.28;6230435;22;19910;-73
2021/01/06 10:24:56;;;;;;;;;;;;;;;-0.03;98.31;100687.28;6255489;22;20322;-74
2021/01/06 10:27:25;;;;;;;;;;;;;;;0.02;98.51;100680.31;6255358;22;20307;-73
2021/01/06 10:29:51;;;;;;;;;;;;;;;0.09;98.29;100678.38;6282631;22;19910;-73
2021/01/06 10:32:19;;;;;;;;;;;;;;;0.13;98.31;100680.44;6229544;22;19910;-73
2021/01/06 10:34:47;;;;;;;;;;;;;;;0.18;98.16;100686.06;6283039;22;20310;-74
2021/01/06 10:37:15;;;;;;;;;;;;;;;0.25;98.52;100693.38;6204251;22;20303;-73
2021/01/06 10:39:48;;;;;;;;;;;;;;;0.31;98.51;100693.34;6282374;22;20312;-73
2021/01/06 10:42:16;;;;;;;;;;;;;;;0.35;98.03;100694.56;6204829;22;19903;-73
2021/01/06 10:44:55;;;;;;;;;;;;;;;0.40;98.13;100688.44;6282383;22;19907;-73
2021/01/06 10:47:30;;;;;;;;;;;;;;;0.44;98.21;100692.41;6255090;22;19913;-73
2021/01/06 10:50:04;;;;;;;;;;;;;;;0.48;98.06;100685.44;6282403;22;19926;-73
2021/01/06 10:52:50;;;;;;;;;;;;;;;0.53;97.82;100693.81;6254995;22;19925;-73
2021/01/06 10:55:19;;;;;;;;;;;;;;;0.56;97.83;100685.16;6254813;22;19907;-73
2021/01/06 10:57:46;;;;;;;;;;;;;;;0.59;97.73;100686.59;6255424;22;20217;-73
2021/01/06 11:00:13;;;;;;;;;;;;;;;0.62;97.78;100681.53;6255505;22;19925;-73
2021/01/06 11:02:46;;;;;;;;;;;;;;;0.68;97.91;100678.97;6228967;22;19907;-73
2021/01/06 11:05:30;;;;;;;;;;;;;;;0.72;98.12;100672.78;6254847;22;20246;-73
2021/01/06 11:08:07;;;;;;;;;;;;;;;0.76;98.00;100674.03;6281890;22;19915;-73
2021/01/06 11:10:39;;;;;;;;;;;;;;;0.81;97.50;100671.47;6229346;22;19918;-74
2021/01/06 11:13:14;;;;;;;;;;;;;;;0.87;97.43;100677.94;6282399;22;20327;-73
2021/01/06 11:16:15;;;;;;;;;;;;;;;0.93;97.52;100674.28;6254533;22;19903;-73
2021/01/06 11:18:42;;;;;;;;;;;;;;;0.99;97.33;100673.38;6158389;23;19912;-73
2021/01/06 11:21:07;;;;;;;;;;;;;;;1.05;97.33;100666.97;6133621;23;20384;-71
2021/01/06 11:23:52;;;;;;;;;;;;;;;1.07;97.26;100673.06;6158861;23;19912;-73
2021/01/06 11:26:32;;;;;;;;;;;;;;;1.13;97.21;100670.50;6158406;23;19908;-74
2021/01/06 11:29:11;;;;;;;;;;;;;;;1.16;97.08;100670.88;6133946;23;19905;-74
2021/01/06 11:31:50;;;;;;;;;;;;;;;1.19;97.08;100664.09;6133166;23;19959;-74
2021/01/06 11:34:15;;;;;;;;;;;;;;;1.20;96.87;100657.56;6158202;23;19931;-74
2021/01/06 11:36:53;;;;;;;;;;;;;;;1.24;96.91;100658.78;6157615;23;19905;-73
2021/01/06 11:39:28;;;;;;;;;;;;;;;1.25;96.79;100644.03;6133717;23;19905;-74
2021/01/06 11:41:54;;;;;;;;;;;;;;;1.27;96.67;100636.44;6133818;23;20334;-74
2021/01/06 11:44:49;;;;;;;;;;;;;;;1.27;96.80;100639.16;6133424;23;20310;-73
2021/01/06 11:47:26;;;;;;;;;;;;;;;1.29;96.66;100639.78;6083878;23;19911;-73
2021/01/06 11:49:52;;;;;;;;;;;;;;;1.31;96.77;100624.81;6158192;23;20501;-73
2021/01/06 11:52:29;;;;;;;;;;;;;;;1.33;96.78;100633.59;6201697;22;19903;-73
2021/01/06 11:54:56;;;;;;;;;;;;;;;1.37;96.70;100627.69;6281434;22;19903;-73
2021/01/06 11:57:30;;;;;;;;;;;;;;;1.37;96.52;100617.59;6254582;22;19903;-73
2021/01/06 12:00:05;;;;;;;;;;;;;;;1.39;96.46;100612.69;6254577;22;19981;-73
2021/01/06 12:03:03;;;;;;;;;;;;;;;1.40;96.64;100611.66;6280868;22;19933;-73
2021/01/06 12:05:31;;;;;;;;;;;;;;;1.42;96.50;100609.53;6214286;22;19914;-73
2021/01/06 12:08:03;;;;;;;;;;;;;;;1.45;96.74;100616.41;6281735;22;20220;-73
2021/01/06 12:10:33;;;;;;;;;;;;;;;1.45;96.53;100608.19;6254184;22;19903;-73
2021/01/06 12:13:16;;;;;;;;;;;;;;;1.48;96.56;100610.50;6204146;22;19903;-73
2021/01/06 12:15:44;;;;;;;;;;;;;;;1.49;96.16;100604.78;6281156;22;19918;-73
2021/01/06 12:18:32;;;;;;;;;;;;;;;1.54;96.39;100607.66;6281625;22;19978;-73
2021/01/06 12:20:59;;;;;;;;;;;;;;;1.58;96.38;100609.91;6265337;22;19910;-73
2021/01/06 12:23:44;;;;;;;;;;;;;;;1.62;96.40;100608.41;6281263;22;20343;-73
2021/01/06 12:26:28;;;;;;;;;;;;;;;1.65;96.30;100607.94;6280617;22;19914;-73
2021/01/06 12:28:54;;;;;;;;;;;;;;;1.68;96.03;100602.00;6281217;22;19903;-73
2021/01/06 12:31:26;;;;;;;;;;;;;;;1.72;95.96;100611.41;6254069;22;19974;-73
2021/01/06 12:34:00;;;;;;;;;;;;;;;1.74;96.00;100601.06;6229625;22;20225;-73
2021/01/06 12:36:27;;;;;;;;;;;;;;;1.78;95.78;100602.25;6280352;22;19914;-73
2021/01/06 12:38:53;;;;;;;;;;;;;;;1.82;95.71;100600.72;6254144;22;19910;-73
2021/01/06 12:41:19;;;;;;;;;;;;;;;1.85;95.49;100600.25;6280996;22;19978;-73
2021/01/06 12:44:05;;;;;;;;;;;;;;;1.88;95.39;100601.69;6281594;22;19903;-73
2021/01/06 12:46:31;;;;;;;;;;;;;;;1.91;95.11;100607.53;6253846;22;19978;-73
2021/01/06 12:49:15;;;;;;;;;;;;;;;1.92;95.08;100598.25;6254468;22;19903;-73
2021/01/06 12:52:06;;;;;;;;;;;;;;;1.96;95.07;100598.63;6281034;22;19903;-73
2021/01/06 12:54:58;;;;;;;;;;;;;;;1.99;94.83;100598.13;6274613;22;19933;-73